createdAt,value
2022-08-30T00:01:25.450Z,22.82
2022-08-30T00:03:54.970Z,22.81
2022-08-30T00:06:24.501Z,22.58
2022-08-30T00:08:53.183Z,22.37
2022-08-30T00:11:24.876Z,22.07
2022-08-30T00:13:54.541Z,21.84
2022-08-30T00:16:23.843Z,21.82
2022-08-30T00:18:51.683Z,21.80
2022-08-30T00:21:20.002Z,21.87
2022-08-30T00:23:47.845Z,21.99
2022-08-30T00:26:15.608Z,21.91
2022-08-30T00:28:44.717Z,21.84
2022-08-30T00:31:15.178Z,21.70
2022-08-30T00:33:43.360Z,21.62
2022-08-30T00:36:11.120Z,21.58
2022-08-30T00:38:38.871Z,21.56
2022-08-30T00:41:06.959Z,21.50
2022-08-30T00:43:36.847Z,21.55
2022-08-30T00:46:08.250Z,21.49
2022-08-30T00:48:40.751Z,21.51
2022-08-30T00:51:11.323Z,21.57
2022-08-30T00:53:43.950Z,21.39
2022-08-30T00:56:14.426Z,21.38
2022-08-30T00:58:46.829Z,21.47
2022-08-30T01:01:17.196Z,21.51
2022-08-30T01:03:45.446Z,21.41
2022-08-30T01:06:15.587Z,21.41
2022-08-30T01:08:44.114Z,21.37
2022-08-30T01:11:13.835Z,21.27
2022-08-30T01:13:42.043Z,21.25
2022-08-30T01:16:10.340Z,21.16
2022-08-30T01:18:39.811Z,21.17
2022-08-30T01:21:17.881Z,21.26
2022-08-30T01:23:50.231Z,21.25
2022-08-30T01:26:19.208Z,21.40
2022-08-30T01:28:54.721Z,21.54
2022-08-30T01:31:23.241Z,21.53
2022-08-30T01:33:52.110Z,21.42
2022-08-30T01:36:20.989Z,21.35
2022-08-30T01:38:53.353Z,21.30
2022-08-30T01:41:24.101Z,21.31
2022-08-30T01:43:54.726Z,21.22
2022-08-30T01:46:24.728Z,21.19
2022-08-30T01:48:54.557Z,21.20
2022-08-30T01:51:25.090Z,21.07
2022-08-30T01:53:54.880Z,20.96
2022-08-30T01:56:23.077Z,20.99
2022-08-30T01:58:51.393Z,21.05
2022-08-30T02:01:21.662Z,21.07
2022-08-30T02:03:49.895Z,21.20
2022-08-30T02:06:20.410Z,21.34
2022-08-30T02:08:48.830Z,21.52
2022-08-30T02:11:19.274Z,21.58
2022-08-30T02:13:47.563Z,21.38
2022-08-30T02:16:18.067Z,21.31
2022-08-30T02:18:47.070Z,21.34
2022-08-30T02:21:15.849Z,21.17
2022-08-30T02:23:44.000Z,21.06
2022-08-30T02:26:12.149Z,21.01
2022-08-30T02:28:42.743Z,20.99
2022-08-30T02:31:19.546Z,20.96
2022-08-30T02:33:50.089Z,20.82
2022-08-30T02:36:17.934Z,20.75
2022-08-30T02:38:46.211Z,20.78
2022-08-30T02:41:14.004Z,20.83
2022-08-30T02:43:43.102Z,20.75
2022-08-30T02:46:11.121Z,20.56
2022-08-30T02:48:39.529Z,20.64
2022-08-30T02:51:11.101Z,20.72
2022-08-30T02:53:40.080Z,20.69
2022-08-30T02:56:08.774Z,20.57
2022-08-30T02:58:36.954Z,20.54
2022-08-30T03:01:07.173Z,20.59
2022-08-30T03:03:34.969Z,20.51
2022-08-30T03:06:03.552Z,20.46
2022-08-30T03:08:32.196Z,20.49
2022-08-30T03:11:00.050Z,20.62
2022-08-30T03:13:27.990Z,20.64
2022-08-30T03:15:55.717Z,20.59
2022-08-30T03:18:26.532Z,20.57
2022-08-30T03:20:55.028Z,20.54
2022-08-30T03:23:23.626Z,20.49
2022-08-30T03:25:51.536Z,20.51
2022-08-30T03:28:19.285Z,20.34
2022-08-30T03:30:48.064Z,20.32
2022-08-30T03:33:16.071Z,20.33
2022-08-30T03:35:48.072Z,20.33
2022-08-30T03:38:15.757Z,20.29
2022-08-30T03:40:43.932Z,20.29
2022-08-30T03:43:11.847Z,20.25
2022-08-30T03:45:40.633Z,20.22
2022-08-30T03:48:08.474Z,20.23
2022-08-30T03:50:36.846Z,20.27
2022-08-30T03:53:06.067Z,20.32
2022-08-30T03:55:34.286Z,20.33
2022-08-30T03:58:02.080Z,20.32
2022-08-30T04:00:29.921Z,20.26
2022-08-30T04:02:57.647Z,20.24
2022-08-30T04:05:25.550Z,20.14
2022-08-30T04:07:53.246Z,20.15
2022-08-30T04:10:22.615Z,20.11
2022-08-30T04:12:50.897Z,19.93
2022-08-30T04:15:19.882Z,19.85
2022-08-30T04:17:47.931Z,19.84
2022-08-30T04:20:16.347Z,19.84
2022-08-30T04:22:44.089Z,19.85
2022-08-30T04:25:15.663Z,19.84
2022-08-30T04:27:45.954Z,19.84
2022-08-30T04:30:15.530Z,19.79
2022-08-30T04:32:43.419Z,19.80
2022-08-30T04:35:12.074Z,19.83
2022-08-30T04:37:40.289Z,19.85
2022-08-30T04:40:09.540Z,19.94
2022-08-30T04:42:37.710Z,19.95
2022-08-30T04:45:10.891Z,20.01
2022-08-30T04:47:39.884Z,20.05
2022-08-30T04:50:08.992Z,20.11
2022-08-30T04:52:36.729Z,20.10
2022-08-30T04:55:05.222Z,20.03
2022-08-30T04:57:33.267Z,20.01
2022-08-30T05:00:00.981Z,19.97
2022-08-30T05:02:30.263Z,20.03
2022-08-30T05:05:15.563Z,20.13
2022-08-30T05:07:43.339Z,20.38
2022-08-30T05:10:11.742Z,20.57
2022-08-30T05:12:39.802Z,20.71
2022-08-30T05:15:08.571Z,20.70
2022-08-30T05:17:37.758Z,20.74
2022-08-30T05:20:06.547Z,20.99
2022-08-30T05:22:36.841Z,21.10
2022-08-30T05:25:05.118Z,21.17
2022-08-30T05:27:33.244Z,21.11
2022-08-30T05:30:06.330Z,21.16
2022-08-30T05:32:34.067Z,21.24
2022-08-30T05:35:03.195Z,21.23
2022-08-30T05:37:30.882Z,21.02
2022-08-30T05:39:59.274Z,20.90
2022-08-30T05:42:27.081Z,20.64
2022-08-30T05:44:55.732Z,20.66
2022-08-30T05:47:23.811Z,20.70
2022-08-30T05:49:51.766Z,20.64
2022-08-30T05:52:21.211Z,20.67
2022-08-30T05:54:54.367Z,20.80
2022-08-30T05:57:22.621Z,20.76
2022-08-30T05:59:50.300Z,20.89
2022-08-30T06:02:18.272Z,21.03
2022-08-30T06:04:46.019Z,21.02
2022-08-30T06:07:15.753Z,21.29
2022-08-30T06:09:46.296Z,21.30
2022-08-30T06:12:13.983Z,21.25
2022-08-30T06:14:41.686Z,21.47
2022-08-30T06:17:09.436Z,21.49
2022-08-30T06:19:37.411Z,21.43
2022-08-30T06:22:05.337Z,21.34
2022-08-30T06:24:55.840Z,21.21
2022-08-30T06:27:22.151Z,21.25
2022-08-30T06:29:52.272Z,21.19
2022-08-30T06:32:20.004Z,21.05
2022-08-30T06:34:48.286Z,20.85
2022-08-30T06:37:29.129Z,20.76
2022-08-30T06:39:58.023Z,20.80
2022-08-30T06:42:31.920Z,20.97
2022-08-30T06:45:00.311Z,21.08
2022-08-30T06:47:29.111Z,20.91
2022-08-30T06:49:57.899Z,20.93
2022-08-30T06:52:26.405Z,20.97
2022-08-30T06:54:55.319Z,20.90
2022-08-30T06:57:22.998Z,20.90
2022-08-30T06:59:57.318Z,20.99
2022-08-30T07:02:26.120Z,21.07
2022-08-30T07:04:53.933Z,21.16
2022-08-30T07:07:21.693Z,21.26
2022-08-30T07:09:49.386Z,21.58
2022-08-30T07:12:17.389Z,21.63
2022-08-30T07:14:45.153Z,21.53
2022-08-30T07:17:34.709Z,21.49
2022-08-30T07:20:03.211Z,21.47
2022-08-30T07:22:30.988Z,21.48
2022-08-30T07:24:58.741Z,21.44
2022-08-30T07:27:26.467Z,21.55
2022-08-30T07:29:54.172Z,21.49
2022-08-30T07:32:23.251Z,21.46
2022-08-30T07:34:51.749Z,21.46
2022-08-30T07:37:19.707Z,21.46
2022-08-30T07:39:48.164Z,21.47
2022-08-30T07:42:16.165Z,21.51
2022-08-30T07:44:43.963Z,21.53
2022-08-30T07:47:12.239Z,21.57
2022-08-30T07:49:41.296Z,21.65
2022-08-30T07:52:09.014Z,21.64
2022-08-30T07:54:36.875Z,21.68
2022-08-30T07:57:04.646Z,21.70
2022-08-30T07:59:35.580Z,21.72
2022-08-30T08:02:04.148Z,21.75
2022-08-30T08:04:33.169Z,21.78
2022-08-30T08:07:02.287Z,21.80
2022-08-30T08:09:30.035Z,22.08
2022-08-30T08:11:57.759Z,22.04
2022-08-30T08:14:25.466Z,22.06
2022-08-30T08:16:53.596Z,22.03
2022-08-30T08:19:21.262Z,22.16
2022-08-30T08:21:55.702Z,22.16
2022-08-30T08:24:38.262Z,22.14
2022-08-30T08:27:06.317Z,22.23
2022-08-30T08:29:34.163Z,22.21
2022-08-30T08:32:01.877Z,22.32
2022-08-30T08:34:29.616Z,22.29
2022-08-30T08:36:57.518Z,22.34
2022-08-30T08:39:25.227Z,22.38
2022-08-30T08:42:05.007Z,22.44
2022-08-30T08:44:45.073Z,23.03
2022-08-30T08:47:16.413Z,22.90
2022-08-30T08:49:47.474Z,22.75
2022-08-30T08:52:38.214Z,22.62
2022-08-30T08:55:10.785Z,22.57
2022-08-30T08:57:40.191Z,22.54
2022-08-30T09:00:10.148Z,22.53
2022-08-30T09:02:42.661Z,22.57
2022-08-30T09:05:14.579Z,22.59
2022-08-30T09:07:48.080Z,22.60
2022-08-30T09:10:18.346Z,22.60
2022-08-30T09:12:55.719Z,22.69
2022-08-30T09:15:29.685Z,22.78
2022-08-30T09:18:01.362Z,22.76
2022-08-30T09:20:34.058Z,22.77
2022-08-30T09:23:22.585Z,22.78
2022-08-30T09:25:54.762Z,22.88
2022-08-30T09:28:27.008Z,22.83
2022-08-30T09:31:11.890Z,22.83
2022-08-30T09:33:40.179Z,22.82
2022-08-30T09:36:15.739Z,22.81
2022-08-30T09:38:43.464Z,22.83
2022-08-30T09:41:38.005Z,22.91
2022-08-30T09:44:10.806Z,22.99
2022-08-30T09:46:47.184Z,22.97
2022-08-30T09:49:37.800Z,22.99
2022-08-30T09:52:26.253Z,23.04
2022-08-30T09:55:10.822Z,23.16
2022-08-30T09:57:45.996Z,23.18
2022-08-30T10:00:19.567Z,23.16
2022-08-30T10:03:09.166Z,23.28
2022-08-30T10:05:47.511Z,23.27
2022-08-30T10:08:25.104Z,23.34
2022-08-30T10:10:56.046Z,23.53
2022-08-30T10:13:44.193Z,23.48
2022-08-30T10:16:22.744Z,23.51
2022-08-30T10:19:04.194Z,23.43
2022-08-30T10:21:38.165Z,23.68
2022-08-30T10:24:11.365Z,23.55
2022-08-30T10:26:44.527Z,23.51
2022-08-30T10:29:17.426Z,23.46
2022-08-30T10:31:52.343Z,23.40
2022-08-30T10:34:26.680Z,23.39
2022-08-30T10:36:59.202Z,23.40
2022-08-30T10:39:32.919Z,23.43
2022-08-30T10:42:06.375Z,23.44
2022-08-30T10:44:41.337Z,23.77
2022-08-30T10:47:23.841Z,23.96
2022-08-30T10:49:57.198Z,23.81
2022-08-30T10:52:34.189Z,23.73
2022-08-30T10:55:08.494Z,23.67
2022-08-30T10:57:38.502Z,23.63
2022-08-30T11:00:13.907Z,23.59
2022-08-30T11:03:25.144Z,23.61
2022-08-30T11:06:17.210Z,23.72
2022-08-30T11:09:09.741Z,23.79
2022-08-30T11:11:56.727Z,23.75
2022-08-30T11:14:25.925Z,23.79
2022-08-30T11:16:56.444Z,23.88
2022-08-30T11:19:32.188Z,23.84
2022-08-30T11:22:14.110Z,24.10
2022-08-30T11:25:11.377Z,24.11
2022-08-30T11:27:51.796Z,23.97
2022-08-30T11:31:04.401Z,23.99
2022-08-30T11:33:46.126Z,23.97
2022-08-30T11:37:09.725Z,24.16
2022-08-30T11:40:14.177Z,24.14
2022-08-30T11:42:48.008Z,24.09
2022-08-30T11:45:45.046Z,24.06
2022-08-30T11:48:53.491Z,24.07
2022-08-30T11:52:23.715Z,24.00
2022-08-30T11:54:55.739Z,23.94
2022-08-30T11:57:32.234Z,24.07
2022-08-30T12:00:08.795Z,24.05
2022-08-30T12:02:46.773Z,24.14
2022-08-30T12:05:51.319Z,24.12
2022-08-30T12:08:58.003Z,24.09
2022-08-30T12:11:55.027Z,24.15
2022-08-30T12:14:54.469Z,24.32
2022-08-30T12:17:48.166Z,24.22
2022-08-30T12:20:22.438Z,24.21
2022-08-30T12:22:51.161Z,24.17
2022-08-30T12:25:26.350Z,24.20
2022-08-30T12:28:14.109Z,24.33
2022-08-30T12:30:46.465Z,24.28
2022-08-30T12:33:28.993Z,24.26
2022-08-30T12:35:59.301Z,24.30
2022-08-30T12:38:28.352Z,24.50
2022-08-30T12:41:00.197Z,24.45
2022-08-30T12:43:40.259Z,24.40
2022-08-30T12:46:12.793Z,24.38
2022-08-30T12:48:44.757Z,24.38
2022-08-30T12:51:34.874Z,24.36
2022-08-30T12:54:10.270Z,24.75
2022-08-30T12:56:56.830Z,24.73
2022-08-30T12:59:54.141Z,24.64
2022-08-30T13:02:27.259Z,24.57
2022-08-30T13:04:57.254Z,24.62
2022-08-30T13:07:31.078Z,24.67
2022-08-30T13:10:05.048Z,24.67
2022-08-30T13:12:34.962Z,24.67
2022-08-30T13:15:17.635Z,24.76
2022-08-30T13:17:47.694Z,24.86
2022-08-30T13:20:25.862Z,24.87
2022-08-30T13:23:06.794Z,25.05
2022-08-30T13:25:35.458Z,25.03
2022-08-30T13:28:05.407Z,25.15
2022-08-30T13:30:33.888Z,25.19
2022-08-30T13:33:03.406Z,25.15
2022-08-30T13:35:32.646Z,25.16
2022-08-30T13:38:04.121Z,25.19
2022-08-30T13:40:31.942Z,25.31
2022-08-30T13:42:59.676Z,25.36
2022-08-30T13:45:43.190Z,25.42
2022-08-30T13:48:15.282Z,25.43
2022-08-30T13:50:45.388Z,25.43
2022-08-30T13:53:13.274Z,25.53
2022-08-30T13:55:42.537Z,25.70
2022-08-30T13:58:13.273Z,25.73
2022-08-30T14:00:41.683Z,25.70
2022-08-30T14:03:09.404Z,25.82
2022-08-30T14:05:49.533Z,25.98
2022-08-30T14:11:09.283Z,26.05
2022-08-30T14:13:37.445Z,26.35
2022-08-30T14:18:56.938Z,26.74
2022-08-30T14:21:26.544Z,27.02
2022-08-30T14:23:55.938Z,27.38
2022-08-30T14:26:33.196Z,27.62
2022-08-30T14:29:02.468Z,27.91
2022-08-30T14:31:32.745Z,28.08
2022-08-30T14:34:01.871Z,28.27
2022-08-30T14:36:33.190Z,28.37
2022-08-30T14:39:01.674Z,28.49
2022-08-30T14:41:29.517Z,28.52
2022-08-30T14:43:57.261Z,28.60
2022-08-30T14:46:26.723Z,28.57
2022-08-30T14:48:55.229Z,28.57
2022-08-30T14:51:24.503Z,28.57
2022-08-30T14:53:54.606Z,28.60
2022-08-30T14:58:59.748Z,28.72
2022-08-30T15:01:27.201Z,28.73
2022-08-30T15:03:53.598Z,28.76
2022-08-30T15:06:22.281Z,28.76
2022-08-30T15:08:48.682Z,28.65
2022-08-30T15:11:18.654Z,28.67
2022-08-30T15:13:45.918Z,28.68
2022-08-30T15:16:16.103Z,28.68
2022-08-30T15:23:45.504Z,28.57
2022-08-30T15:26:11.855Z,28.65
2022-08-30T15:28:38.678Z,28.59
2022-08-30T15:31:08.970Z,28.65
2022-08-30T15:33:36.362Z,28.62
2022-08-30T15:36:06.278Z,28.53
2022-08-30T15:38:33.097Z,28.49
2022-08-30T15:41:03.468Z,28.44
2022-08-30T15:48:28.571Z,28.41
2022-08-30T15:50:56.795Z,28.45
2022-08-30T15:53:23.385Z,28.35
2022-08-30T15:55:49.937Z,28.22
2022-08-30T15:58:17.266Z,28.23
2022-08-30T16:00:45.137Z,28.16
2022-08-30T16:03:11.769Z,28.19
2022-08-30T16:05:39.096Z,28.26
2022-08-30T16:13:09.449Z,28.13
2022-08-30T16:15:38.507Z,27.96
2022-08-30T16:18:05.507Z,28.04
2022-08-30T16:20:31.967Z,27.96
2022-08-30T16:22:58.256Z,27.85
2022-08-30T16:25:24.847Z,27.80
2022-08-30T16:28:06.167Z,27.83
2022-08-30T16:30:37.028Z,27.75
2022-08-30T16:38:02.100Z,27.65
2022-08-30T16:40:29.183Z,27.71
2022-08-30T16:42:55.705Z,27.69
2022-08-30T16:45:22.425Z,27.54
2022-08-30T16:47:50.369Z,27.44
2022-08-30T16:50:20.783Z,27.42
2022-08-30T16:52:47.324Z,27.34
2022-08-30T16:55:14.701Z,27.18
2022-08-30T17:02:53.532Z,26.92
2022-08-30T17:05:20.771Z,26.80
2022-08-30T17:07:47.417Z,26.83
2022-08-30T17:10:14.375Z,26.74
2022-08-30T17:12:41.884Z,26.76
2022-08-30T17:15:13.693Z,26.86
2022-08-30T17:17:43.335Z,26.73
2022-08-30T17:26:41.917Z,26.48
2022-08-30T17:29:08.465Z,26.41
2022-08-30T17:31:35.232Z,26.31
2022-08-30T17:34:05.020Z,26.26
2022-08-30T17:36:31.614Z,26.28
2022-08-30T17:38:58.855Z,26.31
2022-08-30T17:41:25.537Z,26.29
2022-08-30T17:49:00.952Z,26.14
2022-08-30T17:51:28.680Z,26.08
2022-08-30T17:53:55.046Z,26.18
2022-08-30T17:56:21.690Z,26.05
2022-08-30T17:58:49.697Z,25.99
2022-08-30T18:01:17.736Z,25.85
2022-08-30T18:03:45.573Z,25.78
2022-08-30T18:12:33.957Z,25.77
2022-08-30T18:15:00.824Z,25.82
2022-08-30T18:17:27.689Z,25.84
2022-08-30T18:19:54.045Z,25.72
2022-08-30T18:22:24.542Z,25.57
2022-08-30T18:24:51.088Z,25.55
2022-08-30T18:27:17.735Z,25.44
2022-08-30T18:30:03.968Z,25.39
2022-08-30T18:32:35.286Z,25.36
2022-08-30T18:35:06.759Z,25.33
2022-08-30T18:37:37.444Z,25.34
2022-08-30T18:40:06.506Z,25.45
2022-08-30T18:42:37.893Z,25.35
2022-08-30T18:45:14.498Z,25.27
2022-08-30T18:47:43.628Z,25.21
2022-08-30T18:50:12.485Z,25.28
2022-08-30T18:52:40.478Z,25.19
2022-08-30T18:55:09.223Z,25.22
2022-08-30T18:57:37.166Z,25.14
2022-08-30T19:00:09.612Z,25.25
2022-08-30T19:02:37.707Z,25.23
2022-08-30T19:05:07.032Z,25.39
2022-08-30T19:07:37.486Z,25.26
2022-08-30T19:10:07.258Z,25.29
2022-08-30T19:12:40.710Z,25.10
2022-08-30T19:15:11.766Z,25.09
2022-08-30T19:17:40.399Z,24.97
2022-08-30T19:20:10.074Z,24.94
2022-08-30T19:23:08.554Z,24.85
2022-08-30T19:25:26.934Z,24.75
2022-08-30T19:27:56.965Z,24.69
2022-08-30T19:30:29.915Z,24.65
2022-08-30T19:32:58.221Z,24.57
2022-08-30T19:35:26.108Z,24.77
2022-08-30T19:37:53.949Z,24.91
2022-08-30T19:40:23.059Z,24.97
2022-08-30T19:42:51.507Z,24.97
2022-08-30T19:45:21.750Z,24.83
2022-08-30T19:47:53.336Z,24.67
2022-08-30T19:50:22.496Z,24.56
2022-08-30T19:52:54.237Z,24.47
2022-08-30T19:55:30.284Z,24.41
2022-08-30T19:57:59.646Z,24.35
2022-08-30T20:00:30.668Z,24.32
2022-08-30T20:03:01.944Z,24.30
2022-08-30T20:05:30.280Z,24.22
2022-08-30T20:07:58.246Z,24.20
2022-08-30T20:10:26.528Z,24.25
2022-08-30T20:12:54.438Z,24.20
2022-08-30T20:15:22.489Z,24.09
2022-08-30T20:18:13.575Z,24.09
2022-08-30T20:20:39.776Z,24.09
2022-08-30T20:23:07.526Z,24.01
2022-08-30T20:24:23.738Z,26.50
2022-08-30T20:25:35.999Z,23.98
2022-08-30T20:28:04.437Z,24.00
2022-08-30T20:30:33.278Z,23.92
2022-08-30T20:33:06.903Z,23.86
2022-08-30T20:35:36.394Z,23.81
2022-08-30T20:38:06.523Z,23.84
2022-08-30T20:40:36.001Z,23.82
2022-08-30T20:43:04.232Z,23.86
2022-08-30T20:45:34.191Z,23.88
2022-08-30T20:48:03.111Z,23.82
2022-08-30T20:50:31.149Z,23.72
2022-08-30T20:52:58.884Z,23.67
2022-08-30T20:55:28.114Z,23.64
2022-08-30T21:00:24.717Z,23.59
2022-08-30T21:02:54.620Z,23.57
2022-08-30T21:05:22.433Z,23.54
2022-08-30T21:07:50.135Z,23.54
2022-08-30T21:10:23.096Z,23.55
2022-08-30T21:12:52.803Z,23.53
2022-08-30T21:15:36.711Z,23.51
2022-08-30T21:18:05.929Z,23.47
2022-08-30T21:20:33.818Z,23.43
2022-08-30T21:23:01.483Z,23.40
2022-08-30T21:25:30.959Z,23.46
2022-08-30T21:28:00.354Z,23.45
2022-08-30T21:30:28.094Z,23.35
2022-08-30T21:32:59.803Z,23.41
2022-08-30T21:35:45.978Z,23.33
2022-08-30T21:38:14.247Z,23.26
2022-08-30T21:40:42.094Z,23.24
2022-08-30T21:43:11.289Z,23.19
2022-08-30T21:45:39.427Z,23.18
2022-08-30T21:48:07.887Z,23.15
2022-08-30T21:50:35.987Z,23.11
2022-08-30T21:53:05.748Z,23.07
2022-08-30T21:55:33.419Z,23.03
2022-08-30T21:58:01.194Z,23.01
2022-08-30T22:00:33.572Z,23.00
2022-08-30T22:03:01.832Z,22.96
2022-08-30T22:05:29.612Z,22.95
2022-08-30T22:07:57.266Z,22.97
2022-08-30T22:10:25.279Z,23.03
2022-08-30T22:12:53.000Z,22.97
2022-08-30T22:15:20.826Z,23.02
2022-08-30T22:17:49.931Z,22.96
2022-08-30T22:20:18.645Z,22.93
2022-08-30T22:22:46.712Z,22.88
2022-08-30T22:25:14.667Z,22.81
2022-08-30T22:27:42.363Z,22.78
2022-08-30T22:30:11.130Z,22.78
2022-08-30T22:32:38.870Z,22.80
2022-08-30T22:35:09.222Z,22.80
2022-08-30T22:37:36.940Z,22.75
2022-08-30T22:40:05.751Z,22.81
2022-08-30T22:47:34.818Z,22.71
2022-08-30T22:50:01.091Z,22.67
2022-08-30T22:52:27.395Z,22.61
2022-08-30T22:54:53.783Z,22.59
2022-08-30T22:57:23.132Z,22.56
2022-08-30T22:59:51.138Z,22.50
2022-08-30T23:02:17.556Z,22.47
2022-08-30T23:04:45.037Z,22.38
2022-08-30T23:12:15.338Z,22.36
2022-08-30T23:14:41.677Z,22.38
2022-08-30T23:17:08.065Z,22.37
2022-08-30T23:19:34.325Z,22.35
2022-08-30T23:22:01.110Z,22.36
2022-08-30T23:24:46.308Z,22.41
2022-08-30T23:27:34.749Z,22.36
2022-08-30T23:30:19.501Z,22.50
2022-08-30T23:38:25.945Z,22.34
2022-08-30T23:41:10.187Z,22.31
2022-08-30T23:43:55.210Z,22.40
2022-08-30T23:46:40.586Z,22.37
2022-08-30T23:49:24.951Z,22.29
2022-08-30T23:52:09.257Z,22.19
2022-08-30T23:54:57.162Z,22.15
